Time;durP1;ratioP1;P1;durP2;ratioP2;P2;SDS_P1;SDS_P2;PMS_P1;PMS_P2;Temp;Humidity;BMP_temperature;BMP_pressure;BME280_temperature;BME280_humidity;BME280_pressure;Samples;Min_cycle;Max_cycle;Signal;HPM_P1;HPM_P2
2022/09/02 00:00:07;;;;;;;;;;;;;;;;;;350989;28;1587;-59
2022/09/02 00:00:19;;;;;;;;;;;;;;;;;;352415;28;912;-59
2022/09/02 00:00:29;;;;;;;;;;;;;;;;;;352821;28;931;-59
2022/09/02 00:00:39;;;;;;;;;;;;;;;;;;352788;28;935;-59
2022/09/02 00:00:49;;;;;;;;;;;;;;;;;;352841;28;989;-59
2022/09/02 00:01:01;;;;;;;;;;;;;;;;;;352891;28;856;-59
2022/09/02 00:01:11;;;;;;;;;;;;;;;;;;350540;28;1660;-59
2022/09/02 00:01:22;;;;;;;;;;;;;;;;;;350242;28;836;-59
2022/09/02 00:01:32;;;;;;;;;;;;;;;;;;350015;28;826;-59
2022/09/02 00:01:43;;;;;;;;;;;;;;;;;;349815;28;1903;-59
2022/09/02 00:01:53;;;;;;;;;;;;;;;;;;350863;28;1337;-59
2022/09/02 00:02:03;;;;;;;;;;;;;;;;;;351455;28;1878;-59
2022/09/02 00:02:16;;;;;;;;;;;;;;;;;;350381;28;1644;-59
2022/09/02 00:02:28;;;;;;;;;;;;;;;;;;350006;28;983;-59
2022/09/02 00:02:38;;;;;;;;;;;;;;;;;;350024;28;857;-59
2022/09/02 00:02:48;;;;;;;;;;;;;;;;;;349998;28;880;-59
2022/09/02 00:02:59;;;;;;;;;;;;;;;;;;349994;28;929;-59
2022/09/02 00:03:09;;;;;;;;;;;;;;;;;;350023;28;1133;-59
2022/09/02 00:03:19;;;;;;;;;;;;;;;;;;349981;28;865;-59
2022/09/02 00:03:29;;;;;;;;;;;;;;;;;;349993;28;972;-59
2022/09/02 00:03:40;;;;;;;;;;;;;;;;;;349660;28;1930;-59
2022/09/02 00:03:50;;;;;;;;;;;;;;;;;;349961;28;1572;-59
2022/09/02 00:04:00;;;;;;;;;;;;;;;;;;351430;28;932;-59
2022/09/02 00:04:12;;;;;;;;;;;;;;;;;;350252;28;1903;-59
2022/09/02 00:04:22;;;;;;;;;;;;;;;;;;352650;28;956;-59
2022/09/02 00:04:32;;;;;;;;;;;;;;;;;;352833;28;956;-59
2022/09/02 00:04:42;;;;;;;;;;;;;;;;;;352877;27;860;-59
2022/09/02 00:04:52;;;;;;;;;;;;;;;;;;352808;28;828;-59
2022/09/02 00:05:03;;;;;;;;;;;;;;;;;;352800;28;1071;-59
2022/09/02 00:05:13;;;;;;;;;;;;;;;;;;352784;28;991;-59
2022/09/02 00:05:23;;;;;;;;;;;;;;;;;;352800;28;1049;-59
2022/09/02 00:05:33;;;;;;;;;;;;;;;;;;352850;28;856;-59
2022/09/02 00:05:43;;;;;;;;;;;;;;;;;;352849;28;932;-59
2022/09/02 00:05:53;;;;;;;;;;;;;;;;;;351723;28;1881;-59
2022/09/02 00:06:03;;;;;;;;;;;;;;;;;;351233;28;1301;-59
2022/09/02 00:06:13;;;;;;;;;;;;;;;;;;352805;28;1041;-59
2022/09/02 00:06:24;;;;;;;;;;;;;;;;;;352757;28;967;-59
2022/09/02 00:06:34;;;;;;;;;;;;;;;;;;352820;28;972;-59
2022/09/02 00:06:44;;;;;;;;;;;;;;;;;;352859;28;785;-59
2022/09/02 00:06:54;;;;;;;;;;;;;;;;;;352841;28;1017;-59
2022/09/02 00:07:04;;;;;;;;;;;;;;;;;;352849;28;963;-59
2022/09/02 00:07:15;;;;;;;;;;;;;;;;;;352890;28;852;-59
2022/09/02 00:07:25;;;;;;;;;;;;;;;;;;352842;28;931;-59
2022/09/02 00:07:35;;;;;;;;;;;;;;;;;;352887;28;821;-59
2022/09/02 00:07:45;;;;;;;;;;;;;;;;;;351330;28;1969;-59
2022/09/02 00:07:55;;;;;;;;;;;;;;;;;;351435;28;1467;-59
2022/09/02 00:08:05;;;;;;;;;;;;;;;;;;352852;28;908;-59
2022/09/02 00:08:15;;;;;;;;;;;;;;;;;;350883;28;1306;-59
2022/09/02 00:08:25;;;;;;;;;;;;;;;;;;352771;28;904;-59
2022/09/02 00:08:35;;;;;;;;;;;;;;;;;;352816;28;900;-59
2022/09/02 00:08:45;;;;;;;;;;;;;;;;;;352829;28;987;-59
2022/09/02 00:08:55;;;;;;;;;;;;;;;;;;352781;28;1979;-59
2022/09/02 00:09:06;;;;;;;;;;;;;;;;;;352808;28;924;-59
2022/09/02 00:09:16;;;;;;;;;;;;;;;;;;352890;28;828;-59
2022/09/02 00:09:26;;;;;;;;;;;;;;;;;;352734;28;968;-59
2022/09/02 00:09:37;;;;;;;;;;;;;;;;;;352754;28;979;-59
2022/09/02 00:09:47;;;;;;;;;;;;;;;;;;352781;28;976;-59
2022/09/02 00:09:59;;;;;;;;;;;;;;;;;;351929;28;1957;-59
2022/09/02 00:10:09;;;;;;;;;;;;;;;;;;350858;28;1655;-59
2022/09/02 00:10:19;;;;;;;;;;;;;;;;;;352071;28;1562;-59
2022/09/02 00:10:29;;;;;;;;;;;;;;;;;;352769;28;912;-59
2022/09/02 00:10:39;;;;;;;;;;;;;;;;;;352790;28;979;-59
2022/09/02 00:10:49;;;;;;;;;;;;;;;;;;352818;28;959;-59
2022/09/02 00:10:59;;;;;;;;;;;;;;;;;;352856;28;1006;-59
2022/09/02 00:11:10;;;;;;;;;;;;;;;;;;352762;28;987;-59
2022/09/02 00:11:20;;;;;;;;;;;;;;;;;;352888;28;987;-59
2022/09/02 00:11:30;;;;;;;;;;;;;;;;;;350880;28;1953;-59
2022/09/02 00:11:40;;;;;;;;;;;;;;;;;;351828;28;1767;-59
2022/09/02 00:11:50;;;;;;;;;;;;;;;;;;351650;28;1336;-59
2022/09/02 00:12:00;;;;;;;;;;;;;;;;;;350756;28;1874;-59
2022/09/02 00:12:11;;;;;;;;;;;;;;;;;;352786;28;990;-59
2022/09/02 00:12:21;;;;;;;;;;;;;;;;;;352826;28;920;-59
2022/09/02 00:12:32;;;;;;;;;;;;;;;;;;352759;28;976;-59
2022/09/02 00:12:42;;;;;;;;;;;;;;;;;;352775;27;931;-59
2022/09/02 00:12:52;;;;;;;;;;;;;;;;;;352839;28;920;-59
2022/09/02 00:13:02;;;;;;;;;;;;;;;;;;352822;28;932;-59
2022/09/02 00:13:12;;;;;;;;;;;;;;;;;;352803;28;931;-59
2022/09/02 00:13:22;;;;;;;;;;;;;;;;;;352844;27;928;-59
2022/09/02 00:13:32;;;;;;;;;;;;;;;;;;352807;28;1050;-59
2022/09/02 00:13:42;;;;;;;;;;;;;;;;;;351535;28;1882;-59
2022/09/02 00:13:52;;;;;;;;;;;;;;;;;;351115;28;1430;-59
2022/09/02 00:14:03;;;;;;;;;;;;;;;;;;351073;28;1289;-59
2022/09/02 00:14:13;;;;;;;;;;;;;;;;;;350596;28;1656;-59
2022/09/02 00:14:23;;;;;;;;;;;;;;;;;;352734;28;936;-59
2022/09/02 00:14:33;;;;;;;;;;;;;;;;;;352825;28;852;-59
2022/09/02 00:14:43;;;;;;;;;;;;;;;;;;352755;28;1005;-59
2022/09/02 00:14:53;;;;;;;;;;;;;;;;;;352773;28;1313;-59
2022/09/02 00:15:04;;;;;;;;;;;;;;;;;;352852;28;920;-59
2022/09/02 00:15:14;;;;;;;;;;;;;;;;;;352785;28;920;-59
2022/09/02 00:15:24;;;;;;;;;;;;;;;;;;352834;27;948;-59
2022/09/02 00:15:35;;;;;;;;;;;;;;;;;;352810;28;868;-59
2022/09/02 00:15:45;;;;;;;;;;;;;;;;;;352731;28;1090;-59
2022/09/02 00:15:55;;;;;;;;;;;;;;;;;;352836;28;904;-59
2022/09/02 00:16:05;;;;;;;;;;;;;;;;;;350550;28;1910;-59
2022/09/02 00:16:16;;;;;;;;;;;;;;;;;;352536;28;933;-59
2022/09/02 00:16:26;;;;;;;;;;;;;;;;;;352826;28;864;-59
2022/09/02 00:16:36;;;;;;;;;;;;;;;;;;352790;28;991;-59
2022/09/02 00:16:50;;;;;;;;;;;;;;;;;;352742;28;868;-59
2022/09/02 00:17:00;;;;;;;;;;;;;;;;;;352804;28;964;-59
2022/09/02 00:17:10;;;;;;;;;;;;;;;;;;350727;28;1718;-59
2022/09/02 00:17:20;;;;;;;;;;;;;;;;;;351319;28;1514;-59
2022/09/02 00:17:30;;;;;;;;;;;;;;;;;;351413;28;766;-59
2022/09/02 00:17:40;;;;;;;;;;;;;;;;;;350711;28;1899;-59
2022/09/02 00:17:51;;;;;;;;;;;;;;;;;;350946;28;1293;-59
2022/09/02 00:18:01;;;;;;;;;;;;;;;;;;350460;28;1545;-59
2022/09/02 00:18:12;;;;;;;;;;;;;;;;;;352041;28;1586;-59
2022/09/02 00:18:25;;;;;;;;;;;;;;;;;;352828;28;991;-59
2022/09/02 00:18:35;;;;;;;;;;;;;;;;;;352751;28;936;-59
2022/09/02 00:18:47;;;;;;;;;;;;;;;;;;352803;28;996;-59
2022/09/02 00:18:57;;;;;;;;;;;;;;;;;;352750;28;936;-59
2022/09/02 00:19:07;;;;;;;;;;;;;;;;;;352807;28;999;-59
2022/09/02 00:19:17;;;;;;;;;;;;;;;;;;352844;28;1035;-59
2022/09/02 00:19:28;;;;;;;;;;;;;;;;;;352806;28;880;-59
2022/09/02 00:19:38;;;;;;;;;;;;;;;;;;352841;28;962;-59
2022/09/02 00:19:48;;;;;;;;;;;;;;;;;;352777;28;932;-59
2022/09/02 00:19:58;;;;;;;;;;;;;;;;;;352837;28;892;-59
2022/09/02 00:20:08;;;;;;;;;;;;;;;;;;351767;28;1918;-59
2022/09/02 00:20:18;;;;;;;;;;;;;;;;;;351884;28;1336;-59
2022/09/02 00:20:29;;;;;;;;;;;;;;;;;;352839;28;769;-59
2022/09/02 00:20:39;;;;;;;;;;;;;;;;;;352817;28;1035;-59
2022/09/02 00:20:49;;;;;;;;;;;;;;;;;;352689;28;1345;-59
2022/09/02 00:20:59;;;;;;;;;;;;;;;;;;352758;28;959;-59
2022/09/02 00:21:10;;;;;;;;;;;;;;;;;;351692;28;1886;-59
2022/09/02 00:21:20;;;;;;;;;;;;;;;;;;352347;28;1317;-59
2022/09/02 00:21:32;;;;;;;;;;;;;;;;;;352755;28;924;-59
2022/09/02 00:21:42;;;;;;;;;;;;;;;;;;350691;28;1933;-59
2022/09/02 00:21:52;;;;;;;;;;;;;;;;;;351381;28;1673;-59
2022/09/02 00:22:02;;;;;;;;;;;;;;;;;;351430;28;924;-59
2022/09/02 00:22:12;;;;;;;;;;;;;;;;;;351405;28;994;-59
2022/09/02 00:22:23;;;;;;;;;;;;;;;;;;351372;28;1541;-59
2022/09/02 00:22:33;;;;;;;;;;;;;;;;;;351401;28;869;-59
2022/09/02 00:22:43;;;;;;;;;;;;;;;;;;351458;28;908;-59
2022/09/02 00:22:53;;;;;;;;;;;;;;;;;;352052;28;943;-59
2022/09/02 00:23:03;;;;;;;;;;;;;;;;;;351707;28;1897;-59
2022/09/02 00:23:14;;;;;;;;;;;;;;;;;;351861;28;1289;-59
2022/09/02 00:23:24;;;;;;;;;;;;;;;;;;352767;28;1003;-59
2022/09/02 00:23:34;;;;;;;;;;;;;;;;;;352762;28;976;-59
2022/09/02 00:23:44;;;;;;;;;;;;;;;;;;352806;28;956;-59
2022/09/02 00:23:54;;;;;;;;;;;;;;;;;;350795;28;1886;-59
2022/09/02 00:24:04;;;;;;;;;;;;;;;;;;352772;28;908;-59
2022/09/02 00:24:14;;;;;;;;;;;;;;;;;;352382;28;1925;-59
2022/09/02 00:24:25;;;;;;;;;;;;;;;;;;350908;28;1552;-59
2022/09/02 00:24:35;;;;;;;;;;;;;;;;;;351267;28;1554;-59
2022/09/02 00:24:45;;;;;;;;;;;;;;;;;;350303;28;2019;-59
2022/09/02 00:24:55;;;;;;;;;;;;;;;;;;351209;28;1530;-59
2022/09/02 00:25:05;;;;;;;;;;;;;;;;;;350557;28;1937;-59
2022/09/02 00:25:16;;;;;;;;;;;;;;;;;;352794;28;978;-59
2022/09/02 00:25:26;;;;;;;;;;;;;;;;;;352707;28;995;-59
2022/09/02 00:25:36;;;;;;;;;;;;;;;;;;352827;28;916;-59
2022/09/02 00:25:46;;;;;;;;;;;;;;;;;;352808;28;1008;-59
2022/09/02 00:25:56;;;;;;;;;;;;;;;;;;352748;28;904;-59
2022/09/02 00:26:06;;;;;;;;;;;;;;;;;;352827;28;1007;-59
2022/09/02 00:26:16;;;;;;;;;;;;;;;;;;352545;28;1898;-59
2022/09/02 00:26:26;;;;;;;;;;;;;;;;;;350446;28;1320;-59
2022/09/02 00:26:37;;;;;;;;;;;;;;;;;;351291;28;1498;-59
2022/09/02 00:26:47;;;;;;;;;;;;;;;;;;350275;28;1846;-59
2022/09/02 00:26:57;;;;;;;;;;;;;;;;;;352306;28;928;-59
2022/09/02 00:27:07;;;;;;;;;;;;;;;;;;352759;28;927;-59
2022/09/02 00:27:17;;;;;;;;;;;;;;;;;;352774;28;1054;-59
2022/09/02 00:27:27;;;;;;;;;;;;;;;;;;352781;28;991;-59
2022/09/02 00:27:37;;;;;;;;;;;;;;;;;;351728;28;1972;-59
2022/09/02 00:27:47;;;;;;;;;;;;;;;;;;351841;28;1273;-59
2022/09/02 00:27:57;;;;;;;;;;;;;;;;;;352366;28;1734;-59
2022/09/02 00:28:08;;;;;;;;;;;;;;;;;;350296;28;1368;-59
2022/09/02 00:28:18;;;;;;;;;;;;;;;;;;349572;28;1958;-59
2022/09/02 00:28:28;;;;;;;;;;;;;;;;;;351535;28;1594;-59
2022/09/02 00:28:38;;;;;;;;;;;;;;;;;;350645;28;1933;-59
2022/09/02 00:28:48;;;;;;;;;;;;;;;;;;351278;28;1510;-59
2022/09/02 00:28:59;;;;;;;;;;;;;;;;;;351288;28;1902;-59
2022/09/02 00:29:09;;;;;;;;;;;;;;;;;;351425;28;916;-59
2022/09/02 00:29:19;;;;;;;;;;;;;;;;;;351344;28;1230;-59
2022/09/02 00:29:29;;;;;;;;;;;;;;;;;;350187;28;1906;-59
2022/09/02 00:29:39;;;;;;;;;;;;;;;;;;351304;28;1502;-59
2022/09/02 00:29:49;;;;;;;;;;;;;;;;;;351428;28;924;-59
2022/09/02 00:29:59;;;;;;;;;;;;;;;;;;351386;28;956;-59
2022/09/02 00:30:10;;;;;;;;;;;;;;;;;;350276;28;1874;-59
2022/09/02 00:30:20;;;;;;;;;;;;;;;;;;351280;28;1395;-59
2022/09/02 00:30:30;;;;;;;;;;;;;;;;;;351410;28;951;-59
2022/09/02 00:30:40;;;;;;;;;;;;;;;;;;351389;28;936;-59
2022/09/02 00:30:50;;;;;;;;;;;;;;;;;;351232;28;1494;-59
2022/09/02 00:31:00;;;;;;;;;;;;;;;;;;350567;28;1422;-59
2022/09/02 00:31:10;;;;;;;;;;;;;;;;;;351254;28;1609;-59
2022/09/02 00:31:20;;;;;;;;;;;;;;;;;;351359;28;896;-59
2022/09/02 00:31:32;;;;;;;;;;;;;;;;;;351430;28;912;-59
2022/09/02 00:31:42;;;;;;;;;;;;;;;;;;350957;28;1304;-59
2022/09/02 00:31:52;;;;;;;;;;;;;;;;;;351356;28;1510;-59
2022/09/02 00:32:02;;;;;;;;;;;;;;;;;;351370;28;842;-59
2022/09/02 00:32:12;;;;;;;;;;;;;;;;;;351333;28;1471;-59
2022/09/02 00:32:22;;;;;;;;;;;;;;;;;;351396;28;928;-59
2022/09/02 00:32:32;;;;;;;;;;;;;;;;;;351354;28;1137;-59
2022/09/02 00:32:43;;;;;;;;;;;;;;;;;;351434;28;959;-59
2022/09/02 00:32:53;;;;;;;;;;;;;;;;;;351307;28;911;-59
2022/09/02 00:33:03;;;;;;;;;;;;;;;;;;351419;28;1007;-59
2022/09/02 00:33:14;;;;;;;;;;;;;;;;;;351411;28;790;-59
2022/09/02 00:33:24;;;;;;;;;;;;;;;;;;351319;28;991;-59
2022/09/02 00:33:34;;;;;;;;;;;;;;;;;;351563;28;1420;-59
2022/09/02 00:33:44;;;;;;;;;;;;;;;;;;352748;28;940;-59
2022/09/02 00:33:55;;;;;;;;;;;;;;;;;;352811;28;919;-59
2022/09/02 00:34:05;;;;;;;;;;;;;;;;;;351790;28;873;-59
2022/09/02 00:34:16;;;;;;;;;;;;;;;;;;351444;28;793;-59
2022/09/02 00:34:26;;;;;;;;;;;;;;;;;;351374;28;1096;-59
2022/09/02 00:34:36;;;;;;;;;;;;;;;;;;351387;28;814;-59
2022/09/02 00:34:46;;;;;;;;;;;;;;;;;;351391;28;924;-59
2022/09/02 00:34:57;;;;;;;;;;;;;;;;;;350245;28;1946;-59
2022/09/02 00:35:08;;;;;;;;;;;;;;;;;;351320;28;1506;-61
2022/09/02 00:35:18;;;;;;;;;;;;;;;;;;351378;28;945;-59
2022/09/02 00:35:28;;;;;;;;;;;;;;;;;;351222;28;1474;-59
2022/09/02 00:35:38;;;;;;;;;;;;;;;;;;350653;28;1712;-59
2022/09/02 00:35:49;;;;;;;;;;;;;;;;;;350424;28;1157;-59
2022/09/02 00:35:59;;;;;;;;;;;;;;;;;;349990;28;983;-59
2022/09/02 00:36:09;;;;;;;;;;;;;;;;;;349968;28;877;-59
2022/09/02 00:36:19;;;;;;;;;;;;;;;;;;349968;28;924;-59
2022/09/02 00:36:30;;;;;;;;;;;;;;;;;;350019;28;829;-59
2022/09/02 00:36:40;;;;;;;;;;;;;;;;;;350076;28;766;-59
2022/09/02 00:36:50;;;;;;;;;;;;;;;;;;349981;28;912;-59
2022/09/02 00:37:00;;;;;;;;;;;;;;;;;;349969;28;1052;-59
2022/09/02 00:37:12;;;;;;;;;;;;;;;;;;349936;28;983;-59
2022/09/02 00:37:23;;;;;;;;;;;;;;;;;;350012;28;939;-59
2022/09/02 00:37:33;;;;;;;;;;;;;;;;;;349977;28;979;-59
2022/09/02 00:37:43;;;;;;;;;;;;;;;;;;350004;28;814;-59
2022/09/02 00:37:53;;;;;;;;;;;;;;;;;;350002;28;920;-59
2022/09/02 00:38:04;;;;;;;;;;;;;;;;;;349926;28;1031;-59
2022/09/02 00:38:14;;;;;;;;;;;;;;;;;;351234;28;1448;-59
2022/09/02 00:38:24;;;;;;;;;;;;;;;;;;350742;28;1906;-59
2022/09/02 00:38:34;;;;;;;;;;;;;;;;;;351318;28;1518;-59
2022/09/02 00:38:44;;;;;;;;;;;;;;;;;;351373;28;828;-59
2022/09/02 00:38:54;;;;;;;;;;;;;;;;;;351346;28;995;-59
2022/09/02 00:39:06;;;;;;;;;;;;;;;;;;351367;28;932;-59
2022/09/02 00:39:16;;;;;;;;;;;;;;;;;;351394;28;999;-59
2022/09/02 00:39:26;;;;;;;;;;;;;;;;;;351354;28;1051;-59
2022/09/02 00:39:36;;;;;;;;;;;;;;;;;;351380;28;904;-59
2022/09/02 00:39:46;;;;;;;;;;;;;;;;;;351302;28;995;-59
2022/09/02 00:39:56;;;;;;;;;;;;;;;;;;351073;28;1918;-59
2022/09/02 00:40:07;;;;;;;;;;;;;;;;;;350801;28;1293;-59
2022/09/02 00:40:17;;;;;;;;;;;;;;;;;;351323;28;1554;-59
2022/09/02 00:40:27;;;;;;;;;;;;;;;;;;351306;28;996;-59
2022/09/02 00:40:37;;;;;;;;;;;;;;;;;;350635;28;1871;-59
2022/09/02 00:40:47;;;;;;;;;;;;;;;;;;351398;28;1316;-59
2022/09/02 00:40:57;;;;;;;;;;;;;;;;;;352817;28;972;-59
2022/09/02 00:41:07;;;;;;;;;;;;;;;;;;352721;28;955;-59
2022/09/02 00:41:17;;;;;;;;;;;;;;;;;;352783;28;1024;-59
2022/09/02 00:41:27;;;;;;;;;;;;;;;;;;352829;28;904;-59
2022/09/02 00:41:37;;;;;;;;;;;;;;;;;;352737;28;1041;-59
2022/09/02 00:41:48;;;;;;;;;;;;;;;;;;352708;28;907;-58
2022/09/02 00:42:00;;;;;;;;;;;;;;;;;;352798;28;1010;-59
2022/09/02 00:42:10;;;;;;;;;;;;;;;;;;352794;28;868;-59
2022/09/02 00:42:20;;;;;;;;;;;;;;;;;;352788;28;967;-59
2022/09/02 00:42:31;;;;;;;;;;;;;;;;;;352720;28;786;-59
2022/09/02 00:42:41;;;;;;;;;;;;;;;;;;350962;28;1957;-59
2022/09/02 00:42:51;;;;;;;;;;;;;;;;;;350504;28;1592;-59
2022/09/02 00:43:01;;;;;;;;;;;;;;;;;;351267;28;1506;-59
2022/09/02 00:43:11;;;;;;;;;;;;;;;;;;351329;28;905;-59
2022/09/02 00:43:21;;;;;;;;;;;;;;;;;;351891;28;897;-59
2022/09/02 00:43:31;;;;;;;;;;;;;;;;;;352807;28;900;-59
2022/09/02 00:43:42;;;;;;;;;;;;;;;;;;352812;28;979;-59
2022/09/02 00:43:52;;;;;;;;;;;;;;;;;;351414;28;1866;-59
2022/09/02 00:44:02;;;;;;;;;;;;;;;;;;351131;28;1490;-59
2022/09/02 00:44:12;;;;;;;;;;;;;;;;;;349966;28;952;-59
2022/09/02 00:44:22;;;;;;;;;;;;;;;;;;350016;28;892;-59
2022/09/02 00:44:32;;;;;;;;;;;;;;;;;;350341;28;1502;-59
2022/09/02 00:44:43;;;;;;;;;;;;;;;;;;351379;28;908;-59
2022/09/02 00:44:53;;;;;;;;;;;;;;;;;;351395;28;908;-59
2022/09/02 00:45:03;;;;;;;;;;;;;;;;;;351289;28;877;-59
2022/09/02 00:45:14;;;;;;;;;;;;;;;;;;351142;28;1061;-59
2022/09/02 00:45:24;;;;;;;;;;;;;;;;;;351222;28;885;-59
2022/09/02 00:45:34;;;;;;;;;;;;;;;;;;351335;28;920;-59
2022/09/02 00:45:44;;;;;;;;;;;;;;;;;;351394;28;865;-59
2022/09/02 00:45:54;;;;;;;;;;;;;;;;;;351275;28;920;-59
2022/09/02 00:46:04;;;;;;;;;;;;;;;;;;351414;28;877;-59
2022/09/02 00:46:14;;;;;;;;;;;;;;;;;;350249;28;1895;-59
2022/09/02 00:46:24;;;;;;;;;;;;;;;;;;350189;28;1685;-59
2022/09/02 00:46:35;;;;;;;;;;;;;;;;;;351244;28;1478;-59
2022/09/02 00:46:45;;;;;;;;;;;;;;;;;;350212;28;1839;-59
2022/09/02 00:46:55;;;;;;;;;;;;;;;;;;351312;28;1502;-59
2022/09/02 00:47:05;;;;;;;;;;;;;;;;;;351400;28;908;-59
2022/09/02 00:47:15;;;;;;;;;;;;;;;;;;351296;28;1024;-60
2022/09/02 00:47:26;;;;;;;;;;;;;;;;;;351293;28;1439;-59
2022/09/02 00:47:36;;;;;;;;;;;;;;;;;;351412;28;1005;-59
2022/09/02 00:47:46;;;;;;;;;;;;;;;;;;351337;28;1000;-59
2022/09/02 00:47:56;;;;;;;;;;;;;;;;;;351309;28;936;-59
2022/09/02 00:48:06;;;;;;;;;;;;;;;;;;351357;28;825;-59
2022/09/02 00:48:16;;;;;;;;;;;;;;;;;;351669;28;925;-59
2022/09/02 00:48:27;;;;;;;;;;;;;;;;;;351567;28;805;-59
2022/09/02 00:48:39;;;;;;;;;;;;;;;;;;351288;28;979;-59
2022/09/02 00:48:49;;;;;;;;;;;;;;;;;;351421;28;833;-59
2022/09/02 00:48:59;;;;;;;;;;;;;;;;;;351327;28;1972;-59
2022/09/02 00:49:09;;;;;;;;;;;;;;;;;;351414;28;917;-59
2022/09/02 00:49:23;;;;;;;;;;;;;;;;;;351313;28;923;-59
2022/09/02 00:49:33;;;;;;;;;;;;;;;;;;350193;28;1972;-59
2022/09/02 00:49:44;;;;;;;;;;;;;;;;;;351310;28;1506;-59
2022/09/02 00:49:54;;;;;;;;;;;;;;;;;;351403;28;880;-59
2022/09/02 00:50:04;;;;;;;;;;;;;;;;;;351310;28;904;-59
2022/09/02 00:50:14;;;;;;;;;;;;;;;;;;351255;28;971;-63
2022/09/02 00:50:24;;;;;;;;;;;;;;;;;;351363;28;920;-59
2022/09/02 00:50:34;;;;;;;;;;;;;;;;;;351362;28;857;-59
2022/09/02 00:50:44;;;;;;;;;;;;;;;;;;350296;28;1895;-59
2022/09/02 00:50:55;;;;;;;;;;;;;;;;;;351246;28;1308;-59
2022/09/02 00:51:05;;;;;;;;;;;;;;;;;;351378;28;870;-59
2022/09/02 00:51:15;;;;;;;;;;;;;;;;;;351394;28;965;-59
2022/09/02 00:51:25;;;;;;;;;;;;;;;;;;351296;28;1526;-59
2022/09/02 00:51:35;;;;;;;;;;;;;;;;;;351381;28;924;-59
2022/09/02 00:51:45;;;;;;;;;;;;;;;;;;351374;28;1000;-59
2022/09/02 00:51:55;;;;;;;;;;;;;;;;;;351315;28;908;-59
2022/09/02 00:52:05;;;;;;;;;;;;;;;;;;351380;28;944;-59
2022/09/02 00:52:15;;;;;;;;;;;;;;;;;;350135;28;1665;-59
2022/09/02 00:52:25;;;;;;;;;;;;;;;;;;351297;28;1553;-59
2022/09/02 00:52:36;;;;;;;;;;;;;;;;;;349520;28;1867;-59
2022/09/02 00:52:46;;;;;;;;;;;;;;;;;;351045;28;1491;-59
2022/09/02 00:52:56;;;;;;;;;;;;;;;;;;350596;28;1945;-59
2022/09/02 00:53:06;;;;;;;;;;;;;;;;;;351268;28;1470;-59
2022/09/02 00:53:16;;;;;;;;;;;;;;;;;;351370;28;900;-59
2022/09/02 00:53:26;;;;;;;;;;;;;;;;;;351346;28;948;-59
2022/09/02 00:53:38;;;;;;;;;;;;;;;;;;351261;28;1529;-59
2022/09/02 00:53:48;;;;;;;;;;;;;;;;;;351367;28;920;-59
2022/09/02 00:53:58;;;;;;;;;;;;;;;;;;351410;28;868;-59
2022/09/02 00:54:08;;;;;;;;;;;;;;;;;;350259;28;1879;-59
2022/09/02 00:54:18;;;;;;;;;;;;;;;;;;351258;28;1541;-59
2022/09/02 00:54:28;;;;;;;;;;;;;;;;;;351372;28;924;-59
2022/09/02 00:54:39;;;;;;;;;;;;;;;;;;350194;28;1677;-59
2022/09/02 00:54:49;;;;;;;;;;;;;;;;;;351208;28;1313;-59
2022/09/02 00:54:59;;;;;;;;;;;;;;;;;;350213;28;1933;-59
2022/09/02 00:55:09;;;;;;;;;;;;;;;;;;351336;28;1494;-59
2022/09/02 00:55:19;;;;;;;;;;;;;;;;;;351337;28;968;-59
2022/09/02 00:55:29;;;;;;;;;;;;;;;;;;351382;28;971;-59
2022/09/02 00:55:39;;;;;;;;;;;;;;;;;;351322;28;1507;-59
2022/09/02 00:55:50;;;;;;;;;;;;;;;;;;351404;28;944;-59
2022/09/02 00:56:00;;;;;;;;;;;;;;;;;;351351;28;971;-59
2022/09/02 00:56:11;;;;;;;;;;;;;;;;;;351392;28;833;-59
2022/09/02 00:56:21;;;;;;;;;;;;;;;;;;351360;28;860;-59
2022/09/02 00:56:32;;;;;;;;;;;;;;;;;;351315;28;924;-59
2022/09/02 00:56:42;;;;;;;;;;;;;;;;;;351341;28;780;-59
2022/09/02 00:56:52;;;;;;;;;;;;;;;;;;351580;28;1376;-59
2022/09/02 00:57:02;;;;;;;;;;;;;;;;;;352794;28;786;-59
2022/09/02 00:57:14;;;;;;;;;;;;;;;;;;352811;28;777;-59
2022/09/02 00:57:24;;;;;;;;;;;;;;;;;;352735;28;927;-59
2022/09/02 00:57:34;;;;;;;;;;;;;;;;;;350962;28;1608;-60
2022/09/02 00:57:44;;;;;;;;;;;;;;;;;;350059;28;1143;-59
2022/09/02 00:57:55;;;;;;;;;;;;;;;;;;351407;28;912;-59
2022/09/02 00:58:06;;;;;;;;;;;;;;;;;;350542;28;1493;-59
2022/09/02 00:58:16;;;;;;;;;;;;;;;;;;351334;28;1486;-59
2022/09/02 00:58:26;;;;;;;;;;;;;;;;;;351300;28;976;-59
2022/09/02 00:58:36;;;;;;;;;;;;;;;;;;351296;28;1545;-59
2022/09/02 00:58:46;;;;;;;;;;;;;;;;;;351339;28;948;-60
2022/09/02 00:58:56;;;;;;;;;;;;;;;;;;351381;28;968;-59
2022/09/02 00:59:06;;;;;;;;;;;;;;;;;;351379;28;829;-59
2022/09/02 00:59:17;;;;;;;;;;;;;;;;;;351361;28;975;-59
2022/09/02 00:59:27;;;;;;;;;;;;;;;;;;352662;28;1007;-59
2022/09/02 00:59:37;;;;;;;;;;;;;;;;;;352779;28;1054;-59
2022/09/02 00:59:47;;;;;;;;;;;;;;;;;;352815;28;781;-59
2022/09/02 00:59:57;;;;;;;;;;;;;;;;;;352842;28;888;-59
2022/09/02 01:00:07;;;;;;;;;;;;;;;;;;352742;28;1098;-59
2022/09/02 01:00:18;;;;;;;;;;;;;;;;;;352742;28;983;-59
2022/09/02 01:00:28;;;;;;;;;;;;;;;;;;352703;28;948;-59
2022/09/02 01:00:38;;;;;;;;;;;;;;;;;;351958;28;1953;-59
2022/09/02 01:00:48;;;;;;;;;;;;;;;;;;350279;28;1434;-59
2022/09/02 01:00:58;;;;;;;;;;;;;;;;;;350889;28;1409;-59
2022/09/02 01:01:10;;;;;;;;;;;;;;;;;;351257;28;1474;-59
2022/09/02 01:01:21;;;;;;;;;;;;;;;;;;351392;28;794;-59
2022/09/02 01:01:31;;;;;;;;;;;;;;;;;;351276;28;1581;-59
2022/09/02 01:01:41;;;;;;;;;;;;;;;;;;351362;28;928;-59
2022/09/02 01:01:51;;;;;;;;;;;;;;;;;;352094;28;967;-59
2022/09/02 01:02:02;;;;;;;;;;;;;;;;;;352724;28;916;-59
2022/09/02 01:02:12;;;;;;;;;;;;;;;;;;352798;28;915;-59
2022/09/02 01:02:24;;;;;;;;;;;;;;;;;;351106;28;1866;-59
2022/09/02 01:02:34;;;;;;;;;;;;;;;;;;351933;28;947;-59
2022/09/02 01:02:44;;;;;;;;;;;;;;;;;;352770;28;920;-59
2022/09/02 01:02:54;;;;;;;;;;;;;;;;;;352780;28;785;-59
2022/09/02 01:03:04;;;;;;;;;;;;;;;;;;352765;28;991;-59
2022/09/02 01:03:14;;;;;;;;;;;;;;;;;;352759;28;857;-59
2022/09/02 01:03:24;;;;;;;;;;;;;;;;;;352757;28;963;-59
2022/09/02 01:03:34;;;;;;;;;;;;;;;;;;352794;28;781;-59
2022/09/02 01:03:44;;;;;;;;;;;;;;;;;;352732;28;952;-59
2022/09/02 01:03:55;;;;;;;;;;;;;;;;;;352799;28;928;-59
2022/09/02 01:04:08;;;;;;;;;;;;;;;;;;352807;28;931;-59
2022/09/02 01:04:18;;;;;;;;;;;;;;;;;;352811;28;956;-59
2022/09/02 01:04:28;;;;;;;;;;;;;;;;;;352791;28;935;-59
2022/09/02 01:04:38;;;;;;;;;;;;;;;;;;352708;28;874;-59
2022/09/02 01:04:48;;;;;;;;;;;;;;;;;;352754;28;971;-59
2022/09/02 01:04:58;;;;;;;;;;;;;;;;;;352790;28;920;-59
2022/09/02 01:05:09;;;;;;;;;;;;;;;;;;352766;28;971;-59
2022/09/02 01:05:19;;;;;;;;;;;;;;;;;;352814;28;859;-59
2022/09/02 01:05:29;;;;;;;;;;;;;;;;;;352718;28;967;-59
2022/09/02 01:05:43;;;;;;;;;;;;;;;;;;352763;28;837;-59
2022/09/02 01:05:53;;;;;;;;;;;;;;;;;;352790;28;968;-59
2022/09/02 01:06:03;;;;;;;;;;;;;;;;;;352752;28;871;-59
2022/09/02 01:06:14;;;;;;;;;;;;;;;;;;352770;28;963;-59
2022/09/02 01:06:24;;;;;;;;;;;;;;;;;;352767;28;927;-59
2022/09/02 01:06:34;;;;;;;;;;;;;;;;;;352695;28;948;-59
2022/09/02 01:06:44;;;;;;;;;;;;;;;;;;352715;28;912;-59
2022/09/02 01:06:55;;;;;;;;;;;;;;;;;;352735;28;920;-59
2022/09/02 01:07:05;;;;;;;;;;;;;;;;;;352675;28;980;-59
2022/09/02 01:07:15;;;;;;;;;;;;;;;;;;352734;28;1087;-59
2022/09/02 01:07:26;;;;;;;;;;;;;;;;;;352727;28;1034;-59
2022/09/02 01:07:37;;;;;;;;;;;;;;;;;;352713;28;928;-59
2022/09/02 01:07:49;;;;;;;;;;;;;;;;;;352745;28;935;-59
2022/09/02 01:07:59;;;;;;;;;;;;;;;;;;352762;28;936;-59
2022/09/02 01:08:09;;;;;;;;;;;;;;;;;;352733;28;1003;-59
2022/09/02 01:08:20;;;;;;;;;;;;;;;;;;352799;28;912;-59
2022/09/02 01:08:31;;;;;;;;;;;;;;;;;;351791;28;1925;-59
2022/09/02 01:08:41;;;;;;;;;;;;;;;;;;352080;28;1527;-59
2022/09/02 01:08:53;;;;;;;;;;;;;;;;;;352737;28;849;-59
2022/09/02 01:09:03;;;;;;;;;;;;;;;;;;352670;28;1914;-59
2022/09/02 01:09:13;;;;;;;;;;;;;;;;;;352728;28;928;-59
2022/09/02 01:09:23;;;;;;;;;;;;;;;;;;352763;28;928;-59
2022/09/02 01:09:34;;;;;;;;;;;;;;;;;;352794;28;908;-59
2022/09/02 01:09:45;;;;;;;;;;;;;;;;;;352665;28;1054;-60
2022/09/02 01:09:55;;;;;;;;;;;;;;;;;;352778;28;905;-59
2022/09/02 01:10:05;;;;;;;;;;;;;;;;;;352784;28;920;-59
2022/09/02 01:10:16;;;;;;;;;;;;;;;;;;352753;28;912;-59
2022/09/02 01:10:26;;;;;;;;;;;;;;;;;;351495;28;1929;-59
2022/09/02 01:10:36;;;;;;;;;;;;;;;;;;351969;28;1553;-60
2022/09/02 01:10:46;;;;;;;;;;;;;;;;;;352736;28;757;-59
2022/09/02 01:10:56;;;;;;;;;;;;;;;;;;352683;28;959;-59
2022/09/02 01:11:07;;;;;;;;;;;;;;;;;;352785;28;967;-59
2022/09/02 01:11:18;;;;;;;;;;;;;;;;;;352790;28;959;-59
2022/09/02 01:11:31;;;;;;;;;;;;;;;;;;352704;28;928;-59
2022/09/02 01:11:41;;;;;;;;;;;;;;;;;;350720;28;1906;-59
2022/09/02 01:11:52;;;;;;;;;;;;;;;;;;352772;28;804;-59
2022/09/02 01:12:02;;;;;;;;;;;;;;;;;;352836;28;846;-59
2022/09/02 01:12:15;;;;;;;;;;;;;;;;;;352706;28;923;-59
2022/09/02 01:12:26;;;;;;;;;;;;;;;;;;349937;28;1720;-59
2022/09/02 01:12:36;;;;;;;;;;;;;;;;;;350218;28;1832;-59
2022/09/02 01:12:46;;;;;;;;;;;;;;;;;;351298;28;1501;-59
2022/09/02 01:12:56;;;;;;;;;;;;;;;;;;351307;28;928;-59
2022/09/02 01:13:07;;;;;;;;;;;;;;;;;;351310;28;924;-59
2022/09/02 01:13:17;;;;;;;;;;;;;;;;;;351290;28;980;-59
2022/09/02 01:13:27;;;;;;;;;;;;;;;;;;351379;28;991;-59
2022/09/02 01:13:37;;;;;;;;;;;;;;;;;;351373;28;770;-59
2022/09/02 01:13:47;;;;;;;;;;;;;;;;;;351378;28;817;-59